sensor_id;sensor_type;location;lat;lon;timestamp;P1;durP1;ratioP1;P2;durP2;ratioP2
41903;SDS011;27586;51.124;4.182;2023-04-24T00:00:00;25.88;;;18.63;;
41903;SDS011;27586;51.124;4.182;2023-04-24T00:02:28;23.85;;;18.90;;
41903;SDS011;27586;51.124;4.182;2023-04-24T00:04:53;22.73;;;19.90;;
41903;SDS011;27586;51.124;4.182;2023-04-24T00:07:19;22.83;;;20.42;;
41903;SDS011;27586;51.124;4.182;2023-04-24T00:09:45;25.25;;;21.38;;
41903;SDS011;27586;51.124;4.182;2023-04-24T00:12:11;26.00;;;21.85;;
41903;SDS011;27586;51.124;4.182;2023-04-24T00:14:36;24.25;;;21.65;;
41903;SDS011;27586;51.124;4.182;2023-04-24T00:17:02;23.38;;;20.80;;
41903;SDS011;27586;51.124;4.182;2023-04-24T00:19:28;24.40;;;20.98;;
41903;SDS011;27586;51.124;4.182;2023-04-24T00:21:54;23.17;;;20.73;;
41903;SDS011;27586;51.124;4.182;2023-04-24T00:24:20;26.00;;;21.13;;
41903;SDS011;27586;51.124;4.182;2023-04-24T00:26:46;23.25;;;20.75;;
41903;SDS011;27586;51.124;4.182;2023-04-24T00:29:12;23.38;;;19.83;;
41903;SDS011;27586;51.124;4.182;2023-04-24T00:31:38;23.58;;;18.67;;
41903;SDS011;27586;51.124;4.182;2023-04-24T00:34:04;21.17;;;18.95;;
41903;SDS011;27586;51.124;4.182;2023-04-24T00:36:30;21.67;;;19.42;;
41903;SDS011;27586;51.124;4.182;2023-04-24T00:38:57;22.63;;;18.60;;
41903;SDS011;27586;51.124;4.182;2023-04-24T00:41:24;22.10;;;19.15;;
41903;SDS011;27586;51.124;4.182;2023-04-24T00:43:51;20.33;;;18.08;;
41903;SDS011;27586;51.124;4.182;2023-04-24T00:46:17;19.50;;;17.33;;
41903;SDS011;27586;51.124;4.182;2023-04-24T00:48:43;19.40;;;17.05;;
41903;SDS011;27586;51.124;4.182;2023-04-24T00:51:09;21.85;;;18.77;;
41903;SDS011;27586;51.124;4.182;2023-04-24T00:53:35;19.60;;;17.70;;
41903;SDS011;27586;51.124;4.182;2023-04-24T00:56:01;20.38;;;17.02;;
41903;SDS011;27586;51.124;4.182;2023-04-24T00:58:27;20.35;;;18.05;;
41903;SDS011;27586;51.124;4.182;2023-04-24T01:00:54;19.80;;;17.38;;
41903;SDS011;27586;51.124;4.182;2023-04-24T01:03:24;19.00;;;17.13;;
41903;SDS011;27586;51.124;4.182;2023-04-24T01:05:54;19.25;;;17.35;;
41903;SDS011;27586;51.124;4.182;2023-04-24T01:08:20;19.67;;;17.60;;
41903;SDS011;27586;51.124;4.182;2023-04-24T01:10:51;17.88;;;16.10;;
41903;SDS011;27586;51.124;4.182;2023-04-24T01:13:18;20.40;;;16.70;;
41903;SDS011;27586;51.124;4.182;2023-04-24T01:15:45;17.65;;;15.75;;
41903;SDS011;27586;51.124;4.182;2023-04-24T01:18:11;17.15;;;15.55;;
41903;SDS011;27586;51.124;4.182;2023-04-24T01:20:37;16.45;;;14.77;;
41903;SDS011;27586;51.124;4.182;2023-04-24T01:23:08;14.43;;;12.88;;
41903;SDS011;27586;51.124;4.182;2023-04-24T01:25:34;13.88;;;12.30;;
41903;SDS011;27586;51.124;4.182;2023-04-24T01:28:01;13.60;;;12.20;;
41903;SDS011;27586;51.124;4.182;2023-04-24T01:30:27;13.68;;;12.25;;
41903;SDS011;27586;51.124;4.182;2023-04-24T01:32:53;15.35;;;12.55;;
41903;SDS011;27586;51.124;4.182;2023-04-24T01:35:19;13.30;;;11.93;;
41903;SDS011;27586;51.124;4.182;2023-04-24T01:37:45;15.13;;;13.27;;
41903;SDS011;27586;51.124;4.182;2023-04-24T01:40:11;16.13;;;12.90;;
41903;SDS011;27586;51.124;4.182;2023-04-24T01:42:37;14.70;;;13.20;;
41903;SDS011;27586;51.124;4.182;2023-04-24T01:45:03;14.98;;;12.65;;
41903;SDS011;27586;51.124;4.182;2023-04-24T01:47:30;16.13;;;12.60;;
41903;SDS011;27586;51.124;4.182;2023-04-24T01:49:57;15.25;;;12.07;;
41903;SDS011;27586;51.124;4.182;2023-04-24T01:52:23;12.25;;;11.02;;
41903;SDS011;27586;51.124;4.182;2023-04-24T01:54:48;12.77;;;11.57;;
41903;SDS011;27586;51.124;4.182;2023-04-24T01:57:14;13.27;;;11.93;;
41903;SDS011;27586;51.124;4.182;2023-04-24T01:59:41;14.75;;;13.25;;
41903;SDS011;27586;51.124;4.182;2023-04-24T02:02:06;13.88;;;12.57;;
41903;SDS011;27586;51.124;4.182;2023-04-24T02:04:32;14.38;;;13.05;;
41903;SDS011;27586;51.124;4.182;2023-04-24T02:06:58;13.82;;;12.43;;
41903;SDS011;27586;51.124;4.182;2023-04-24T02:09:24;13.98;;;12.77;;
41903;SDS011;27586;51.124;4.182;2023-04-24T02:11:50;14.05;;;12.88;;
41903;SDS011;27586;51.124;4.182;2023-04-24T02:14:15;14.63;;;13.13;;
41903;SDS011;27586;51.124;4.182;2023-04-24T02:16:41;13.55;;;12.35;;
41903;SDS011;27586;51.124;4.182;2023-04-24T02:19:07;14.32;;;12.85;;
41903;SDS011;27586;51.124;4.182;2023-04-24T02:21:33;15.32;;;13.88;;
41903;SDS011;27586;51.124;4.182;2023-04-24T02:23:58;14.85;;;13.43;;
41903;SDS011;27586;51.124;4.182;2023-04-24T02:26:24;14.30;;;13.00;;
41903;SDS011;27586;51.124;4.182;2023-04-24T02:28:50;13.57;;;12.27;;
41903;SDS011;27586;51.124;4.182;2023-04-24T02:31:16;13.57;;;12.38;;
41903;SDS011;27586;51.124;4.182;2023-04-24T02:33:41;13.80;;;12.50;;
41903;SDS011;27586;51.124;4.182;2023-04-24T02:36:07;14.15;;;12.75;;
41903;SDS011;27586;51.124;4.182;2023-04-24T02:38:33;14.57;;;13.07;;
41903;SDS011;27586;51.124;4.182;2023-04-24T02:40:58;14.05;;;12.70;;
41903;SDS011;27586;51.124;4.182;2023-04-24T02:43:25;14.23;;;12.88;;
41903;SDS011;27586;51.124;4.182;2023-04-24T02:45:51;13.73;;;12.50;;
41903;SDS011;27586;51.124;4.182;2023-04-24T02:48:16;14.27;;;12.88;;
41903;SDS011;27586;51.124;4.182;2023-04-24T02:50:42;12.82;;;11.63;;
41903;SDS011;27586;51.124;4.182;2023-04-24T02:53:08;15.13;;;13.65;;
41903;SDS011;27586;51.124;4.182;2023-04-24T02:55:33;13.75;;;12.38;;
41903;SDS011;27586;51.124;4.182;2023-04-24T02:57:59;13.95;;;12.63;;
41903;SDS011;27586;51.124;4.182;2023-04-24T03:00:25;14.50;;;13.00;;
41903;SDS011;27586;51.124;4.182;2023-04-24T03:02:50;13.68;;;12.48;;
41903;SDS011;27586;51.124;4.182;2023-04-24T03:05:16;15.23;;;13.65;;
41903;SDS011;27586;51.124;4.182;2023-04-24T03:07:42;14.40;;;13.00;;
41903;SDS011;27586;51.124;4.182;2023-04-24T03:10:08;13.82;;;12.52;;
41903;SDS011;27586;51.124;4.182;2023-04-24T03:12:33;14.85;;;13.40;;
41903;SDS011;27586;51.124;4.182;2023-04-24T03:14:59;13.88;;;12.65;;
41903;SDS011;27586;51.124;4.182;2023-04-24T03:17:25;14.75;;;13.32;;
41903;SDS011;27586;51.124;4.182;2023-04-24T03:19:51;15.07;;;13.63;;
41903;SDS011;27586;51.124;4.182;2023-04-24T03:22:16;16.25;;;14.50;;
41903;SDS011;27586;51.124;4.182;2023-04-24T03:24:42;17.55;;;15.02;;
41903;SDS011;27586;51.124;4.182;2023-04-24T03:27:08;16.77;;;15.27;;
41903;SDS011;27586;51.124;4.182;2023-04-24T03:29:33;17.92;;;16.13;;
41903;SDS011;27586;51.124;4.182;2023-04-24T03:31:59;12.80;;;10.20;;
41903;SDS011;27586;51.124;4.182;2023-04-24T03:34:25;12.23;;;10.93;;
41903;SDS011;27586;51.124;4.182;2023-04-24T03:36:51;14.90;;;11.15;;
41903;SDS011;27586;51.124;4.182;2023-04-24T03:39:17;11.23;;;8.15;;
41903;SDS011;27586;51.124;4.182;2023-04-24T03:41:43;7.22;;;5.80;;
41903;SDS011;27586;51.124;4.182;2023-04-24T03:44:09;8.88;;;5.38;;
41903;SDS011;27586;51.124;4.182;2023-04-24T03:46:34;5.90;;;4.97;;
41903;SDS011;27586;51.124;4.182;2023-04-24T03:49:00;5.82;;;4.32;;
41903;SDS011;27586;51.124;4.182;2023-04-24T03:51:26;9.32;;;4.82;;
41903;SDS011;27586;51.124;4.182;2023-04-24T03:53:52;5.13;;;4.50;;
41903;SDS011;27586;51.124;4.182;2023-04-24T03:56:18;6.55;;;4.95;;
41903;SDS011;27586;51.124;4.182;2023-04-24T03:58:44;7.72;;;5.80;;
41903;SDS011;27586;51.124;4.182;2023-04-24T04:01:10;5.97;;;5.38;;
41903;SDS011;27586;51.124;4.182;2023-04-24T04:03:36;8.13;;;5.50;;
41903;SDS011;27586;51.124;4.182;2023-04-24T04:06:02;7.45;;;5.63;;
41903;SDS011;27586;51.124;4.182;2023-04-24T04:08:28;6.68;;;5.70;;
41903;SDS011;27586;51.124;4.182;2023-04-24T04:10:54;6.53;;;5.55;;
41903;SDS011;27586;51.124;4.182;2023-04-24T04:13:19;9.13;;;5.50;;
41903;SDS011;27586;51.124;4.182;2023-04-24T04:15:45;7.50;;;6.00;;
41903;SDS011;27586;51.124;4.182;2023-04-24T04:18:11;7.90;;;6.80;;
41903;SDS011;27586;51.124;4.182;2023-04-24T04:20:36;10.07;;;8.10;;
41903;SDS011;27586;51.124;4.182;2023-04-24T04:23:02;12.02;;;8.65;;
41903;SDS011;27586;51.124;4.182;2023-04-24T04:25:28;12.07;;;10.73;;
41903;SDS011;27586;51.124;4.182;2023-04-24T04:27:54;12.57;;;10.68;;
41903;SDS011;27586;51.124;4.182;2023-04-24T04:30:20;11.95;;;10.73;;
41903;SDS011;27586;51.124;4.182;2023-04-24T04:32:45;13.05;;;10.95;;
41903;SDS011;27586;51.124;4.182;2023-04-24T04:35:11;12.38;;;10.90;;
41903;SDS011;27586;51.124;4.182;2023-04-24T04:37:37;14.30;;;11.00;;
41903;SDS011;27586;51.124;4.182;2023-04-24T04:40:03;13.70;;;11.02;;
41903;SDS011;27586;51.124;4.182;2023-04-24T04:42:31;11.98;;;10.77;;
41903;SDS011;27586;51.124;4.182;2023-04-24T04:44:59;14.50;;;11.68;;
41903;SDS011;27586;51.124;4.182;2023-04-24T04:47:25;15.80;;;11.55;;
41903;SDS011;27586;51.124;4.182;2023-04-24T04:49:53;13.85;;;11.45;;
41903;SDS011;27586;51.124;4.182;2023-04-24T04:52:19;16.92;;;11.75;;
41903;SDS011;27586;51.124;4.182;2023-04-24T04:54:45;16.13;;;11.82;;
41903;SDS011;27586;51.124;4.182;2023-04-24T04:57:11;16.10;;;12.77;;
41903;SDS011;27586;51.124;4.182;2023-04-24T04:59:37;17.20;;;12.68;;
41903;SDS011;27586;51.124;4.182;2023-04-24T05:02:03;14.55;;;12.13;;
41903;SDS011;27586;51.124;4.182;2023-04-24T05:04:29;14.05;;;11.07;;
41903;SDS011;27586;51.124;4.182;2023-04-24T05:06:55;15.65;;;11.15;;
41903;SDS011;27586;51.124;4.182;2023-04-24T05:09:21;15.82;;;10.93;;
41903;SDS011;27586;51.124;4.182;2023-04-24T05:11:47;16.80;;;10.80;;
41903;SDS011;27586;51.124;4.182;2023-04-24T05:14:12;14.77;;;10.55;;
41903;SDS011;27586;51.124;4.182;2023-04-24T05:16:38;13.20;;;10.60;;
41903;SDS011;27586;51.124;4.182;2023-04-24T05:19:05;14.38;;;11.02;;
41903;SDS011;27586;51.124;4.182;2023-04-24T05:21:30;15.07;;;10.75;;
41903;SDS011;27586;51.124;4.182;2023-04-24T05:23:56;13.45;;;11.13;;
41903;SDS011;27586;51.124;4.182;2023-04-24T05:26:22;16.27;;;11.40;;
41903;SDS011;27586;51.124;4.182;2023-04-24T05:28:48;16.50;;;11.77;;
41903;SDS011;27586;51.124;4.182;2023-04-24T05:31:13;15.80;;;11.38;;
41903;SDS011;27586;51.124;4.182;2023-04-24T05:33:39;17.05;;;12.60;;
41903;SDS011;27586;51.124;4.182;2023-04-24T05:36:05;14.18;;;11.88;;
41903;SDS011;27586;51.124;4.182;2023-04-24T05:38:31;15.90;;;12.77;;
41903;SDS011;27586;51.124;4.182;2023-04-24T05:40:57;15.82;;;12.38;;
41903;SDS011;27586;51.124;4.182;2023-04-24T05:43:23;15.43;;;12.73;;
41903;SDS011;27586;51.124;4.182;2023-04-24T05:45:49;17.42;;;12.93;;
41903;SDS011;27586;51.124;4.182;2023-04-24T05:48:14;15.73;;;12.80;;
41903;SDS011;27586;51.124;4.182;2023-04-24T05:50:40;21.13;;;16.25;;
41903;SDS011;27586;51.124;4.182;2023-04-24T05:53:06;30.60;;;23.77;;
41903;SDS011;27586;51.124;4.182;2023-04-24T05:55:33;39.97;;;27.15;;
41903;SDS011;27586;51.124;4.182;2023-04-24T05:57:59;37.22;;;27.88;;
41903;SDS011;27586;51.124;4.182;2023-04-24T06:00:24;37.88;;;28.38;;
41903;SDS011;27586;51.124;4.182;2023-04-24T06:02:50;35.38;;;28.08;;
41903;SDS011;27586;51.124;4.182;2023-04-24T06:05:17;37.17;;;26.98;;
41903;SDS011;27586;51.124;4.182;2023-04-24T06:07:44;34.03;;;25.55;;
41903;SDS011;27586;51.124;4.182;2023-04-24T06:10:10;33.47;;;25.23;;
41903;SDS011;27586;51.124;4.182;2023-04-24T06:12:35;29.65;;;23.05;;
41903;SDS011;27586;51.124;4.182;2023-04-24T06:15:01;43.60;;;25.25;;
41903;SDS011;27586;51.124;4.182;2023-04-24T06:17:27;33.53;;;23.70;;
41903;SDS011;27586;51.124;4.182;2023-04-24T06:19:53;33.65;;;24.52;;
41903;SDS011;27586;51.124;4.182;2023-04-24T06:22:19;35.53;;;26.17;;
41903;SDS011;27586;51.124;4.182;2023-04-24T06:24:44;39.20;;;26.35;;
41903;SDS011;27586;51.124;4.182;2023-04-24T06:27:10;31.48;;;22.50;;
41903;SDS011;27586;51.124;4.182;2023-04-24T06:29:36;28.15;;;20.75;;
41903;SDS011;27586;51.124;4.182;2023-04-24T06:32:01;28.83;;;18.88;;
41903;SDS011;27586;51.124;4.182;2023-04-24T06:34:27;25.63;;;18.02;;
41903;SDS011;27586;51.124;4.182;2023-04-24T06:36:53;29.63;;;19.73;;
41903;SDS011;27586;51.124;4.182;2023-04-24T06:39:20;31.23;;;20.33;;
41903;SDS011;27586;51.124;4.182;2023-04-24T06:41:45;27.92;;;20.05;;
41903;SDS011;27586;51.124;4.182;2023-04-24T06:44:11;24.95;;;16.40;;
41903;SDS011;27586;51.124;4.182;2023-04-24T06:46:37;17.67;;;11.70;;
41903;SDS011;27586;51.124;4.182;2023-04-24T06:49:02;17.00;;;9.85;;
41903;SDS011;27586;51.124;4.182;2023-04-24T06:51:28;16.27;;;8.98;;
41903;SDS011;27586;51.124;4.182;2023-04-24T06:53:54;15.68;;;7.53;;
41903;SDS011;27586;51.124;4.182;2023-04-24T06:56:21;14.50;;;7.53;;
41903;SDS011;27586;51.124;4.182;2023-04-24T06:58:47;11.98;;;6.90;;
41903;SDS011;27586;51.124;4.182;2023-04-24T07:01:13;12.07;;;6.40;;
41903;SDS011;27586;51.124;4.182;2023-04-24T07:03:39;11.30;;;6.97;;
41903;SDS011;27586;51.124;4.182;2023-04-24T07:06:05;10.88;;;6.85;;
41903;SDS011;27586;51.124;4.182;2023-04-24T07:08:31;12.50;;;6.80;;
41903;SDS011;27586;51.124;4.182;2023-04-24T07:10:58;13.10;;;6.53;;
41903;SDS011;27586;51.124;4.182;2023-04-24T07:13:24;10.93;;;6.18;;
41903;SDS011;27586;51.124;4.182;2023-04-24T07:15:50;12.40;;;5.90;;
41903;SDS011;27586;51.124;4.182;2023-04-24T07:18:17;12.98;;;6.15;;
41903;SDS011;27586;51.124;4.182;2023-04-24T07:20:43;10.90;;;5.45;;
41903;SDS011;27586;51.124;4.182;2023-04-24T07:23:09;9.93;;;5.63;;
41903;SDS011;27586;51.124;4.182;2023-04-24T07:25:35;11.70;;;6.05;;
41903;SDS011;27586;51.124;4.182;2023-04-24T07:28:01;11.95;;;5.63;;
41903;SDS011;27586;51.124;4.182;2023-04-24T07:30:26;11.35;;;5.35;;
41903;SDS011;27586;51.124;4.182;2023-04-24T07:32:54;12.80;;;5.63;;
41903;SDS011;27586;51.124;4.182;2023-04-24T07:35:20;15.70;;;5.57;;
41903;SDS011;27586;51.124;4.182;2023-04-24T07:37:46;12.75;;;5.70;;
41903;SDS011;27586;51.124;4.182;2023-04-24T07:40:12;13.80;;;5.97;;
41903;SDS011;27586;51.124;4.182;2023-04-24T07:42:38;10.88;;;5.43;;
41903;SDS011;27586;51.124;4.182;2023-04-24T07:45:04;13.13;;;5.78;;
41903;SDS011;27586;51.124;4.182;2023-04-24T07:47:31;14.15;;;7.85;;
41903;SDS011;27586;51.124;4.182;2023-04-24T07:49:57;19.35;;;11.02;;
41903;SDS011;27586;51.124;4.182;2023-04-24T07:52:23;19.95;;;10.80;;
41903;SDS011;27586;51.124;4.182;2023-04-24T07:54:49;19.35;;;10.55;;
41903;SDS011;27586;51.124;4.182;2023-04-24T07:57:15;22.20;;;10.32;;
41903;SDS011;27586;51.124;4.182;2023-04-24T07:59:41;20.48;;;9.82;;
41903;SDS011;27586;51.124;4.182;2023-04-24T08:02:07;19.85;;;8.98;;
41903;SDS011;27586;51.124;4.182;2023-04-24T08:04:33;20.48;;;8.20;;
41903;SDS011;27586;51.124;4.182;2023-04-24T08:06:58;15.55;;;6.90;;
41903;SDS011;27586;51.124;4.182;2023-04-24T08:09:24;12.07;;;6.25;;
41903;SDS011;27586;51.124;4.182;2023-04-24T08:11:50;11.82;;;5.82;;
41903;SDS011;27586;51.124;4.182;2023-04-24T08:14:15;11.27;;;5.65;;
41903;SDS011;27586;51.124;4.182;2023-04-24T08:16:41;15.00;;;5.72;;
41903;SDS011;27586;51.124;4.182;2023-04-24T08:19:07;17.35;;;6.22;;
41903;SDS011;27586;51.124;4.182;2023-04-24T08:21:33;12.07;;;6.15;;
41903;SDS011;27586;51.124;4.182;2023-04-24T08:23:58;13.68;;;5.88;;
41903;SDS011;27586;51.124;4.182;2023-04-24T08:26:24;12.77;;;5.22;;
41903;SDS011;27586;51.124;4.182;2023-04-24T08:28:50;12.73;;;5.38;;
41903;SDS011;27586;51.124;4.182;2023-04-24T08:31:15;14.27;;;5.75;;
41903;SDS011;27586;51.124;4.182;2023-04-24T08:33:41;15.25;;;6.55;;
41903;SDS011;27586;51.124;4.182;2023-04-24T08:36:09;13.70;;;6.88;;
41903;SDS011;27586;51.124;4.182;2023-04-24T08:38:35;12.60;;;6.45;;
41903;SDS011;27586;51.124;4.182;2023-04-24T08:41:01;13.55;;;7.10;;
41903;SDS011;27586;51.124;4.182;2023-04-24T08:43:27;12.48;;;6.43;;
41903;SDS011;27586;51.124;4.182;2023-04-24T08:45:55;15.23;;;6.70;;
41903;SDS011;27586;51.124;4.182;2023-04-24T08:48:21;10.20;;;6.25;;
41903;SDS011;27586;51.124;4.182;2023-04-24T08:50:48;12.57;;;6.93;;
41903;SDS011;27586;51.124;4.182;2023-04-24T08:53:15;16.60;;;8.45;;
41903;SDS011;27586;51.124;4.182;2023-04-24T08:55:42;21.17;;;14.15;;
41903;SDS011;27586;51.124;4.182;2023-04-24T08:58:11;27.70;;;16.58;;
41903;SDS011;27586;51.124;4.182;2023-04-24T09:00:38;21.48;;;13.00;;
41903;SDS011;27586;51.124;4.182;2023-04-24T09:03:05;16.77;;;8.63;;
41903;SDS011;27586;51.124;4.182;2023-04-24T09:05:31;16.30;;;8.10;;
41903;SDS011;27586;51.124;4.182;2023-04-24T09:07:58;11.90;;;6.95;;
41903;SDS011;27586;51.124;4.182;2023-04-24T09:10:26;9.85;;;5.65;;
41903;SDS011;27586;51.124;4.182;2023-04-24T09:12:55;12.50;;;5.40;;
41903;SDS011;27586;51.124;4.182;2023-04-24T09:15:23;9.95;;;4.63;;
41903;SDS011;27586;51.124;4.182;2023-04-24T09:17:49;8.15;;;4.80;;
41903;SDS011;27586;51.124;4.182;2023-04-24T09:20:16;10.50;;;5.05;;
41903;SDS011;27586;51.124;4.182;2023-04-24T09:22:42;12.10;;;5.43;;
41903;SDS011;27586;51.124;4.182;2023-04-24T09:25:10;10.85;;;5.82;;
41903;SDS011;27586;51.124;4.182;2023-04-24T09:27:40;8.35;;;4.80;;
41903;SDS011;27586;51.124;4.182;2023-04-24T09:30:09;7.63;;;4.60;;
41903;SDS011;27586;51.124;4.182;2023-04-24T09:32:35;9.00;;;4.25;;
41903;SDS011;27586;51.124;4.182;2023-04-24T09:37:40;11.27;;;4.68;;
41903;SDS011;27586;51.124;4.182;2023-04-24T09:40:08;7.40;;;3.60;;
41903;SDS011;27586;51.124;4.182;2023-04-24T09:42:36;7.90;;;3.88;;
41903;SDS011;27586;51.124;4.182;2023-04-24T09:45:02;10.85;;;6.10;;
41903;SDS011;27586;51.124;4.182;2023-04-24T09:47:35;6.80;;;3.90;;
41903;SDS011;27586;51.124;4.182;2023-04-24T09:50:08;11.98;;;4.57;;
41903;SDS011;27586;51.124;4.182;2023-04-24T09:52:39;8.77;;;3.85;;
41903;SDS011;27586;51.124;4.182;2023-04-24T09:55:16;7.72;;;3.80;;
41903;SDS011;27586;51.124;4.182;2023-04-24T09:57:47;9.75;;;3.80;;
41903;SDS011;27586;51.124;4.182;2023-04-24T10:00:17;8.07;;;4.05;;
41903;SDS011;27586;51.124;4.182;2023-04-24T10:02:50;9.02;;;4.18;;
41903;SDS011;27586;51.124;4.182;2023-04-24T10:05:21;8.40;;;3.45;;
41903;SDS011;27586;51.124;4.182;2023-04-24T10:07:48;9.60;;;3.97;;
41903;SDS011;27586;51.124;4.182;2023-04-24T10:10:14;7.95;;;4.00;;
41903;SDS011;27586;51.124;4.182;2023-04-24T10:12:40;6.97;;;3.50;;
41903;SDS011;27586;51.124;4.182;2023-04-24T10:15:07;5.50;;;3.67;;
41903;SDS011;27586;51.124;4.182;2023-04-24T10:17:34;6.60;;;3.83;;
41903;SDS011;27586;51.124;4.182;2023-04-24T10:20:01;11.48;;;4.03;;
41903;SDS011;27586;51.124;4.182;2023-04-24T10:22:27;8.40;;;3.42;;
41903;SDS011;27586;51.124;4.182;2023-04-24T10:24:55;10.20;;;4.05;;
41903;SDS011;27586;51.124;4.182;2023-04-24T10:27:22;6.47;;;3.65;;
41903;SDS011;27586;51.124;4.182;2023-04-24T10:29:49;7.43;;;3.80;;
41903;SDS011;27586;51.124;4.182;2023-04-24T10:32:18;8.95;;;3.67;;
41903;SDS011;27586;51.124;4.182;2023-04-24T10:34:43;7.15;;;4.10;;
41903;SDS011;27586;51.124;4.182;2023-04-24T10:37:09;5.90;;;3.60;;
41903;SDS011;27586;51.124;4.182;2023-04-24T10:39:35;8.82;;;3.90;;
41903;SDS011;27586;51.124;4.182;2023-04-24T10:42:02;6.32;;;3.95;;
41903;SDS011;27586;51.124;4.182;2023-04-24T10:44:40;9.25;;;3.92;;
41903;SDS011;27586;51.124;4.182;2023-04-24T10:47:07;5.78;;;3.50;;
41903;SDS011;27586;51.124;4.182;2023-04-24T10:49:38;9.55;;;4.05;;
41903;SDS011;27586;51.124;4.182;2023-04-24T10:52:05;9.63;;;4.50;;
41903;SDS011;27586;51.124;4.182;2023-04-24T10:59:48;7.07;;;4.05;;
41903;SDS011;27586;51.124;4.182;2023-04-24T11:02:18;7.82;;;4.22;;
41903;SDS011;27586;51.124;4.182;2023-04-24T11:05:02;8.95;;;3.90;;
41903;SDS011;27586;51.124;4.182;2023-04-24T11:07:28;7.90;;;3.95;;
41903;SDS011;27586;51.124;4.182;2023-04-24T11:09:58;7.35;;;3.88;;
41903;SDS011;27586;51.124;4.182;2023-04-24T11:12:23;9.57;;;4.55;;
41903;SDS011;27586;51.124;4.182;2023-04-24T11:17:34;10.05;;;6.55;;
41903;SDS011;27586;51.124;4.182;2023-04-24T11:20:06;10.10;;;6.00;;
41903;SDS011;27586;51.124;4.182;2023-04-24T11:22:37;10.73;;;5.57;;
41903;SDS011;27586;51.124;4.182;2023-04-24T11:25:07;7.88;;;4.68;;
41903;SDS011;27586;51.124;4.182;2023-04-24T11:27:44;7.53;;;3.88;;
41903;SDS011;27586;51.124;4.182;2023-04-24T11:30:16;6.70;;;3.30;;
41903;SDS011;27586;51.124;4.182;2023-04-24T11:32:43;8.80;;;3.55;;
41903;SDS011;27586;51.124;4.182;2023-04-24T11:37:45;7.78;;;4.40;;
41903;SDS011;27586;51.124;4.182;2023-04-24T11:40:13;7.03;;;3.90;;
41903;SDS011;27586;51.124;4.182;2023-04-24T11:42:43;8.88;;;5.40;;
41903;SDS011;27586;51.124;4.182;2023-04-24T11:45:14;9.23;;;5.10;;
41903;SDS011;27586;51.124;4.182;2023-04-24T11:47:42;7.47;;;4.43;;
41903;SDS011;27586;51.124;4.182;2023-04-24T11:50:10;8.38;;;5.45;;
41903;SDS011;27586;51.124;4.182;2023-04-24T11:52:38;10.48;;;7.10;;
41903;SDS011;27586;51.124;4.182;2023-04-24T11:55:06;10.25;;;5.35;;
41903;SDS011;27586;51.124;4.182;2023-04-24T11:57:34;6.35;;;4.40;;
41903;SDS011;27586;51.124;4.182;2023-04-24T12:00:01;7.05;;;4.05;;
41903;SDS011;27586;51.124;4.182;2023-04-24T12:02:30;7.60;;;5.70;;
41903;SDS011;27586;51.124;4.182;2023-04-24T12:04:55;8.70;;;6.25;;
41903;SDS011;27586;51.124;4.182;2023-04-24T12:07:22;8.05;;;5.85;;
41903;SDS011;27586;51.124;4.182;2023-04-24T12:09:54;4.07;;;2.75;;
41903;SDS011;27586;51.124;4.182;2023-04-24T12:12:27;5.82;;;2.88;;
41903;SDS011;27586;51.124;4.182;2023-04-24T12:14:54;7.35;;;3.08;;
41903;SDS011;27586;51.124;4.182;2023-04-24T12:17:24;7.20;;;4.47;;
41903;SDS011;27586;51.124;4.182;2023-04-24T12:19:50;7.60;;;4.40;;
41903;SDS011;27586;51.124;4.182;2023-04-24T12:22:16;9.13;;;3.65;;
41903;SDS011;27586;51.124;4.182;2023-04-24T12:27:35;7.38;;;5.05;;
41903;SDS011;27586;51.124;4.182;2023-04-24T12:30:02;6.82;;;4.72;;
41903;SDS011;27586;51.124;4.182;2023-04-24T12:32:29;7.90;;;4.20;;
41903;SDS011;27586;51.124;4.182;2023-04-24T12:34:55;6.38;;;3.10;;
41903;SDS011;27586;51.124;4.182;2023-04-24T12:37:25;5.00;;;2.85;;
41903;SDS011;27586;51.124;4.182;2023-04-24T12:40:07;4.25;;;3.38;;
41903;SDS011;27586;51.124;4.182;2023-04-24T12:42:41;5.28;;;2.65;;
41903;SDS011;27586;51.124;4.182;2023-04-24T12:45:14;7.35;;;2.78;;
41903;SDS011;27586;51.124;4.182;2023-04-24T12:47:41;3.90;;;2.03;;
41903;SDS011;27586;51.124;4.182;2023-04-24T12:50:09;5.03;;;2.10;;
41903;SDS011;27586;51.124;4.182;2023-04-24T12:52:36;4.85;;;2.05;;
41903;SDS011;27586;51.124;4.182;2023-04-24T12:55:02;5.57;;;2.28;;
41903;SDS011;27586;51.124;4.182;2023-04-24T12:57:30;6.18;;;2.70;;
41903;SDS011;27586;51.124;4.182;2023-04-24T12:59:56;5.60;;;2.30;;
41903;SDS011;27586;51.124;4.182;2023-04-24T13:02:23;4.70;;;2.40;;
41903;SDS011;27586;51.124;4.182;2023-04-24T13:04:50;3.92;;;2.10;;
41903;SDS011;27586;51.124;4.182;2023-04-24T13:07:16;6.28;;;2.33;;
41903;SDS011;27586;51.124;4.182;2023-04-24T13:09:42;3.08;;;1.98;;
41903;SDS011;27586;51.124;4.182;2023-04-24T13:12:09;6.07;;;2.50;;
41903;SDS011;27586;51.124;4.182;2023-04-24T13:14:36;4.32;;;2.08;;
41903;SDS011;27586;51.124;4.182;2023-04-24T13:17:02;2.63;;;1.73;;
41903;SDS011;27586;51.124;4.182;2023-04-24T13:19:28;3.05;;;1.70;;
41903;SDS011;27586;51.124;4.182;2023-04-24T13:21:54;5.05;;;1.65;;
41903;SDS011;27586;51.124;4.182;2023-04-24T13:24:21;3.15;;;1.50;;
41903;SDS011;27586;51.124;4.182;2023-04-24T13:26:51;4.13;;;1.17;;
41903;SDS011;27586;51.124;4.182;2023-04-24T13:29:17;2.25;;;1.35;;
41903;SDS011;27586;51.124;4.182;2023-04-24T13:31:43;3.30;;;1.30;;
41903;SDS011;27586;51.124;4.182;2023-04-24T13:34:09;3.05;;;1.35;;
41903;SDS011;27586;51.124;4.182;2023-04-24T13:36:35;2.63;;;1.50;;
41903;SDS011;27586;51.124;4.182;2023-04-24T13:39:01;3.97;;;1.40;;
41903;SDS011;27586;51.124;4.182;2023-04-24T13:41:29;1.95;;;1.27;;
41903;SDS011;27586;51.124;4.182;2023-04-24T13:43:55;2.30;;;1.20;;
41903;SDS011;27586;51.124;4.182;2023-04-24T13:46:21;2.83;;;1.60;;
41903;SDS011;27586;51.124;4.182;2023-04-24T13:48:47;3.08;;;1.40;;
41903;SDS011;27586;51.124;4.182;2023-04-24T13:51:12;2.10;;;1.40;;
41903;SDS011;27586;51.124;4.182;2023-04-24T13:53:38;2.78;;;1.42;;
41903;SDS011;27586;51.124;4.182;2023-04-24T13:56:04;2.40;;;1.40;;
41903;SDS011;27586;51.124;4.182;2023-04-24T13:58:34;2.40;;;1.40;;
41903;SDS011;27586;51.124;4.182;2023-04-24T14:01:02;3.08;;;1.50;;
41903;SDS011;27586;51.124;4.182;2023-04-24T14:03:28;4.88;;;1.65;;
41903;SDS011;27586;51.124;4.182;2023-04-24T14:05:54;3.30;;;1.60;;
41903;SDS011;27586;51.124;4.182;2023-04-24T14:08:19;2.28;;;1.40;;
41903;SDS011;27586;51.124;4.182;2023-04-24T14:10:45;3.88;;;1.60;;
41903;SDS011;27586;51.124;4.182;2023-04-24T14:13:11;3.13;;;1.80;;
41903;SDS011;27586;51.124;4.182;2023-04-24T14:15:37;2.95;;;1.65;;
41903;SDS011;27586;51.124;4.182;2023-04-24T14:18:03;4.07;;;1.80;;
41903;SDS011;27586;51.124;4.182;2023-04-24T14:20:29;4.03;;;1.50;;
41903;SDS011;27586;51.124;4.182;2023-04-24T14:22:54;2.17;;;1.60;;
41903;SDS011;27586;51.124;4.182;2023-04-24T14:25:20;2.83;;;1.55;;
41903;SDS011;27586;51.124;4.182;2023-04-24T14:27:47;3.20;;;1.38;;
41903;SDS011;27586;51.124;4.182;2023-04-24T14:30:13;2.60;;;1.40;;
41903;SDS011;27586;51.124;4.182;2023-04-24T14:32:40;1.85;;;1.30;;
41903;SDS011;27586;51.124;4.182;2023-04-24T14:35:06;2.88;;;1.60;;
41903;SDS011;27586;51.124;4.182;2023-04-24T14:37:32;4.55;;;1.77;;
41903;SDS011;27586;51.124;4.182;2023-04-24T14:39:58;4.45;;;1.60;;
41903;SDS011;27586;51.124;4.182;2023-04-24T14:42:24;2.40;;;1.30;;
41903;SDS011;27586;51.124;4.182;2023-04-24T14:44:51;3.08;;;1.63;;